Aérodrome :
LOGIN :

S'inscrire | Disclaimer

   EN    FR    IT 

 










Légende :    VFR   VFR Marginal   IFR   IFR Intensif   IFR Très Intensif
Visi : 
Plafond : 
>= 8 km
>= 3000ft
5 à 8 km
1000 à 3000 ft
1500m à 5 km
500 à 1000 ft
800 à 1500m
200 à 500 ft
< 800m
< 200 ft
Symboles :   Orages  Brouillard  Fortes neiges  Fortes précipitations  Vent > 20 kt
SIGMETs :   Divers  Orages  Givrage  Turbulence  Onde Orograph.  Cendres Volcan.







- Altitude de l'aérodrome : 7 ft
- Code IATA : XHE
- Voir les cartes d'approche


LFTH - Hyeres

DERNIER METAR :
  • 141030Z AUTO 32012KT 290V010 CAVOK 30/17 Q1011 NOSIG

METARs EXPIRÉS :
  • 141000Z AUTO 28015KT 250V310 CAVOK 29/17 Q1011 TEMPO 30010G20KT
  • 140930Z AUTO 27013KT CAVOK 29/16 Q1011 NOSIG
  • 140900Z AUTO 27012KT CAVOK 28/17 Q1011 NOSIG
  • 140830Z AUTO 28012KT CAVOK 27/16 Q1011 NOSIG
  • 140800Z AUTO 28010KT 250V310 CAVOK 27/18 Q1011 NOSIG

TAF TAF LFTH
Valide du 14 à 09h jusqu'au 15 à 09h UTC


140800Z 1409/1509 29011KT CAVOK
TEMPO 1411/1416 30010G20KT
TEMPO 1418/1422 02006KT
BECMG 1422/1424 SCT025
Pas de NOTAMs connus pour ce terrain.
1 SIGMET publié pour la FIR Marseille (LFMM) :
 
Orages noyés dans la masse
LFMM SIGMET 3 VALID 140930/141200 LFPW
LFMM MARSEILLE FIR/UIR EMBD TS OBS WI N4000 E00800 - N3900 E00800 - N3900 E00445 - N4015 E00530 - N4000 E00800 TOP FL400 STNR NC=



MET'MAP, la Météo Aéronautique d'un coup d'oeil ! - Copyright ORBIFLY Décembre 2007 - Disclaimer

ORBIFLY MET'MAP TEAM :

Programmation & Développement : Alexandra Zaïnal
Conception & Développement : Baudouin d'Aumeries
Co-Programmation & Développement : Marc-Olivier Méhu
Soutien technique & logistique : Manuel Goepfert

Contact : metmap@orbifly.com




SOURCES & CREDITS :

   NOAA